sensor_id;sensor_type;location;lat;lon;timestamp;P1;durP1;ratioP1;P2;durP2;ratioP2
3259;SDS011;68938;48.150;14.004;2023-06-22T00:02:10;11.13;;;5.57;;
3259;SDS011;68938;48.150;14.004;2023-06-22T00:04:37;6.57;;;4.60;;
3259;SDS011;68938;48.150;14.004;2023-06-22T00:07:03;5.40;;;4.90;;
3259;SDS011;68938;48.150;14.004;2023-06-22T00:09:31;6.73;;;5.07;;
3259;SDS011;68938;48.150;14.004;2023-06-22T00:11:58;6.77;;;4.73;;
3259;SDS011;68938;48.150;14.004;2023-06-22T00:14:25;7.90;;;5.40;;
3259;SDS011;68938;48.150;14.004;2023-06-22T00:16:52;9.10;;;4.93;;
3259;SDS011;68938;48.150;14.004;2023-06-22T00:19:19;10.73;;;5.83;;
3259;SDS011;68938;48.150;14.004;2023-06-22T00:21:47;5.83;;;4.90;;
3259;SDS011;68938;48.150;14.004;2023-06-22T00:24:16;7.57;;;5.27;;
3259;SDS011;68938;48.150;14.004;2023-06-22T00:26:43;7.50;;;5.03;;
3259;SDS011;68938;48.150;14.004;2023-06-22T00:29:10;9.20;;;5.57;;
3259;SDS011;68938;48.150;14.004;2023-06-22T00:31:37;7.40;;;5.07;;
3259;SDS011;68938;48.150;14.004;2023-06-22T00:34:05;6.90;;;4.27;;
3259;SDS011;68938;48.150;14.004;2023-06-22T00:36:31;6.17;;;4.30;;
3259;SDS011;68938;48.150;14.004;2023-06-22T00:38:58;6.50;;;5.20;;
3259;SDS011;68938;48.150;14.004;2023-06-22T00:41:25;6.50;;;4.40;;
3259;SDS011;68938;48.150;14.004;2023-06-22T00:43:52;7.83;;;4.40;;
3259;SDS011;68938;48.150;14.004;2023-06-22T00:46:19;10.10;;;5.10;;
3259;SDS011;68938;48.150;14.004;2023-06-22T00:48:47;8.80;;;3.83;;
3259;SDS011;68938;48.150;14.004;2023-06-22T00:51:15;5.03;;;4.33;;
3259;SDS011;68938;48.150;14.004;2023-06-22T00:53:42;9.33;;;4.97;;
3259;SDS011;68938;48.150;14.004;2023-06-22T00:56:10;6.97;;;5.10;;
3259;SDS011;68938;48.150;14.004;2023-06-22T00:58:37;4.43;;;4.03;;
3259;SDS011;68938;48.150;14.004;2023-06-22T01:01:05;8.73;;;5.60;;
3259;SDS011;68938;48.150;14.004;2023-06-22T01:03:32;10.60;;;5.70;;
3259;SDS011;68938;48.150;14.004;2023-06-22T01:06:02;6.57;;;4.83;;
3259;SDS011;68938;48.150;14.004;2023-06-22T01:08:44;9.77;;;4.83;;
3259;SDS011;68938;48.150;14.004;2023-06-22T01:11:20;6.60;;;5.13;;
3259;SDS011;68938;48.150;14.004;2023-06-22T01:16:43;5.37;;;4.87;;
3259;SDS011;68938;48.150;14.004;2023-06-22T01:22:02;5.23;;;4.47;;
3259;SDS011;68938;48.150;14.004;2023-06-22T01:30:30;4.77;;;4.43;;
3259;SDS011;68938;48.150;14.004;2023-06-22T01:32:58;6.87;;;4.90;;
3259;SDS011;68938;48.150;14.004;2023-06-22T01:35:26;7.60;;;4.50;;
3259;SDS011;68938;48.150;14.004;2023-06-22T01:37:53;8.80;;;4.10;;
3259;SDS011;68938;48.150;14.004;2023-06-22T01:40:21;8.93;;;5.33;;
3259;SDS011;68938;48.150;14.004;2023-06-22T01:42:50;6.87;;;4.80;;
3259;SDS011;68938;48.150;14.004;2023-06-22T01:45:18;9.40;;;5.37;;
3259;SDS011;68938;48.150;14.004;2023-06-22T01:47:46;6.73;;;4.80;;
3259;SDS011;68938;48.150;14.004;2023-06-22T01:50:13;6.97;;;4.50;;
3259;SDS011;68938;48.150;14.004;2023-06-22T01:52:41;5.80;;;4.57;;
3259;SDS011;68938;48.150;14.004;2023-06-22T01:55:08;7.60;;;4.20;;
3259;SDS011;68938;48.150;14.004;2023-06-22T01:57:35;9.30;;;5.00;;
3259;SDS011;68938;48.150;14.004;2023-06-22T02:00:03;6.37;;;4.40;;
3259;SDS011;68938;48.150;14.004;2023-06-22T02:02:37;6.80;;;4.77;;
3259;SDS011;68938;48.150;14.004;2023-06-22T02:05:11;6.77;;;5.00;;
3259;SDS011;68938;48.150;14.004;2023-06-22T02:07:56;8.77;;;5.27;;
3259;SDS011;68938;48.150;14.004;2023-06-22T02:10:34;8.37;;;5.23;;
3259;SDS011;68938;48.150;14.004;2023-06-22T02:13:05;9.03;;;5.33;;
3259;SDS011;68938;48.150;14.004;2023-06-22T02:15:34;8.13;;;6.20;;
3259;SDS011;68938;48.150;14.004;2023-06-22T02:18:01;5.80;;;4.93;;
3259;SDS011;68938;48.150;14.004;2023-06-22T02:20:28;9.67;;;6.27;;
3259;SDS011;68938;48.150;14.004;2023-06-22T02:22:56;5.80;;;4.90;;
3259;SDS011;68938;48.150;14.004;2023-06-22T02:25:23;6.67;;;6.03;;
3259;SDS011;68938;48.150;14.004;2023-06-22T02:27:51;9.00;;;5.80;;
3259;SDS011;68938;48.150;14.004;2023-06-22T02:30:17;7.80;;;5.93;;
3259;SDS011;68938;48.150;14.004;2023-06-22T02:32:44;7.53;;;6.00;;
3259;SDS011;68938;48.150;14.004;2023-06-22T02:35:11;11.03;;;6.93;;
3259;SDS011;68938;48.150;14.004;2023-06-22T02:37:38;6.43;;;5.70;;
3259;SDS011;68938;48.150;14.004;2023-06-22T02:40:06;8.03;;;5.70;;
3259;SDS011;68938;48.150;14.004;2023-06-22T02:42:37;7.10;;;5.80;;
3259;SDS011;68938;48.150;14.004;2023-06-22T02:45:05;10.60;;;6.37;;
3259;SDS011;68938;48.150;14.004;2023-06-22T02:47:33;7.57;;;5.73;;
3259;SDS011;68938;48.150;14.004;2023-06-22T02:50:01;8.93;;;6.13;;
3259;SDS011;68938;48.150;14.004;2023-06-22T02:52:28;8.00;;;5.80;;
3259;SDS011;68938;48.150;14.004;2023-06-22T02:54:55;6.30;;;5.70;;
3259;SDS011;68938;48.150;14.004;2023-06-22T02:57:22;6.57;;;5.60;;
3259;SDS011;68938;48.150;14.004;2023-06-22T02:59:49;11.43;;;6.23;;
3259;SDS011;68938;48.150;14.004;2023-06-22T03:02:15;8.93;;;6.00;;
3259;SDS011;68938;48.150;14.004;2023-06-22T03:04:42;12.07;;;6.23;;
3259;SDS011;68938;48.150;14.004;2023-06-22T03:07:09;12.40;;;5.60;;
3259;SDS011;68938;48.150;14.004;2023-06-22T03:09:36;11.67;;;6.50;;
3259;SDS011;68938;48.150;14.004;2023-06-22T03:12:03;7.73;;;5.80;;
3259;SDS011;68938;48.150;14.004;2023-06-22T03:14:31;8.43;;;6.50;;
3259;SDS011;68938;48.150;14.004;2023-06-22T03:16:58;8.70;;;5.67;;
3259;SDS011;68938;48.150;14.004;2023-06-22T03:19:25;7.30;;;5.50;;
3259;SDS011;68938;48.150;14.004;2023-06-22T03:21:52;6.90;;;5.13;;
3259;SDS011;68938;48.150;14.004;2023-06-22T03:24:18;9.17;;;5.80;;
3259;SDS011;68938;48.150;14.004;2023-06-22T03:26:45;11.43;;;6.10;;
3259;SDS011;68938;48.150;14.004;2023-06-22T03:29:12;4.83;;;4.50;;
3259;SDS011;68938;48.150;14.004;2023-06-22T03:31:39;9.03;;;5.67;;
3259;SDS011;68938;48.150;14.004;2023-06-22T03:34:06;9.80;;;6.53;;
3259;SDS011;68938;48.150;14.004;2023-06-22T03:36:33;7.40;;;5.87;;
3259;SDS011;68938;48.150;14.004;2023-06-22T03:39:00;8.40;;;5.53;;
3259;SDS011;68938;48.150;14.004;2023-06-22T03:41:27;10.63;;;6.27;;
3259;SDS011;68938;48.150;14.004;2023-06-22T03:43:54;6.10;;;5.10;;
3259;SDS011;68938;48.150;14.004;2023-06-22T03:46:21;8.60;;;7.37;;
3259;SDS011;68938;48.150;14.004;2023-06-22T03:48:48;7.13;;;6.30;;
3259;SDS011;68938;48.150;14.004;2023-06-22T03:51:15;9.43;;;6.53;;
3259;SDS011;68938;48.150;14.004;2023-06-22T03:53:42;12.30;;;6.90;;
3259;SDS011;68938;48.150;14.004;2023-06-22T03:56:09;8.70;;;6.30;;
3259;SDS011;68938;48.150;14.004;2023-06-22T03:58:36;9.70;;;5.80;;
3259;SDS011;68938;48.150;14.004;2023-06-22T04:01:03;7.60;;;5.60;;
3259;SDS011;68938;48.150;14.004;2023-06-22T04:03:30;7.37;;;6.47;;
3259;SDS011;68938;48.150;14.004;2023-06-22T04:05:57;8.77;;;6.30;;
3259;SDS011;68938;48.150;14.004;2023-06-22T04:08:24;7.60;;;6.30;;
3259;SDS011;68938;48.150;14.004;2023-06-22T04:10:51;7.57;;;5.50;;
3259;SDS011;68938;48.150;14.004;2023-06-22T04:13:18;11.77;;;5.73;;
3259;SDS011;68938;48.150;14.004;2023-06-22T04:15:45;10.67;;;5.80;;
3259;SDS011;68938;48.150;14.004;2023-06-22T04:18:11;7.70;;;5.57;;
3259;SDS011;68938;48.150;14.004;2023-06-22T04:20:39;7.50;;;5.63;;
3259;SDS011;68938;48.150;14.004;2023-06-22T04:23:06;8.40;;;5.97;;
3259;SDS011;68938;48.150;14.004;2023-06-22T04:25:33;13.10;;;6.80;;
3259;SDS011;68938;48.150;14.004;2023-06-22T04:28:00;6.87;;;6.17;;
3259;SDS011;68938;48.150;14.004;2023-06-22T04:30:27;8.13;;;6.10;;
3259;SDS011;68938;48.150;14.004;2023-06-22T04:32:54;6.20;;;5.60;;
3259;SDS011;68938;48.150;14.004;2023-06-22T04:35:21;8.77;;;5.77;;
3259;SDS011;68938;48.150;14.004;2023-06-22T04:37:48;7.43;;;5.47;;
3259;SDS011;68938;48.150;14.004;2023-06-22T04:40:16;9.10;;;6.40;;
3259;SDS011;68938;48.150;14.004;2023-06-22T04:42:42;10.70;;;7.20;;
3259;SDS011;68938;48.150;14.004;2023-06-22T04:45:09;11.27;;;6.93;;
3259;SDS011;68938;48.150;14.004;2023-06-22T04:47:36;14.60;;;6.53;;
3259;SDS011;68938;48.150;14.004;2023-06-22T04:50:03;9.20;;;6.70;;
3259;SDS011;68938;48.150;14.004;2023-06-22T04:52:30;11.37;;;6.60;;
3259;SDS011;68938;48.150;14.004;2023-06-22T04:54:57;10.57;;;6.37;;
3259;SDS011;68938;48.150;14.004;2023-06-22T04:57:24;10.97;;;7.10;;
3259;SDS011;68938;48.150;14.004;2023-06-22T04:59:51;13.60;;;8.00;;
3259;SDS011;68938;48.150;14.004;2023-06-22T05:02:18;9.07;;;7.40;;
3259;SDS011;68938;48.150;14.004;2023-06-22T05:04:45;11.60;;;7.20;;
3259;SDS011;68938;48.150;14.004;2023-06-22T05:07:12;11.73;;;6.53;;
3259;SDS011;68938;48.150;14.004;2023-06-22T05:09:39;7.70;;;6.97;;
3259;SDS011;68938;48.150;14.004;2023-06-22T05:12:06;6.83;;;6.17;;
3259;SDS011;68938;48.150;14.004;2023-06-22T05:14:36;12.73;;;6.87;;
3259;SDS011;68938;48.150;14.004;2023-06-22T05:17:03;8.80;;;6.57;;
3259;SDS011;68938;48.150;14.004;2023-06-22T05:19:30;7.23;;;6.53;;
3259;SDS011;68938;48.150;14.004;2023-06-22T05:21:57;10.37;;;6.93;;
3259;SDS011;68938;48.150;14.004;2023-06-22T05:24:24;10.77;;;6.37;;
3259;SDS011;68938;48.150;14.004;2023-06-22T05:26:51;8.93;;;6.40;;
3259;SDS011;68938;48.150;14.004;2023-06-22T05:29:18;8.60;;;6.00;;
3259;SDS011;68938;48.150;14.004;2023-06-22T05:31:45;11.17;;;6.50;;
3259;SDS011;68938;48.150;14.004;2023-06-22T05:34:12;10.50;;;6.90;;
3259;SDS011;68938;48.150;14.004;2023-06-22T05:36:39;12.07;;;7.33;;
3259;SDS011;68938;48.150;14.004;2023-06-22T05:39:12;8.13;;;6.67;;
3259;SDS011;68938;48.150;14.004;2023-06-22T05:41:40;13.37;;;6.83;;
3259;SDS011;68938;48.150;14.004;2023-06-22T05:44:08;12.80;;;6.60;;
3259;SDS011;68938;48.150;14.004;2023-06-22T05:46:35;10.67;;;6.30;;
3259;SDS011;68938;48.150;14.004;2023-06-22T05:49:03;10.33;;;6.87;;
3259;SDS011;68938;48.150;14.004;2023-06-22T05:51:29;10.07;;;7.23;;
3259;SDS011;68938;48.150;14.004;2023-06-22T05:53:56;9.80;;;7.20;;
3259;SDS011;68938;48.150;14.004;2023-06-22T05:56:23;8.57;;;7.77;;
3259;SDS011;68938;48.150;14.004;2023-06-22T05:58:50;9.20;;;6.83;;
3259;SDS011;68938;48.150;14.004;2023-06-22T06:01:17;9.10;;;8.00;;
3259;SDS011;68938;48.150;14.004;2023-06-22T06:03:44;14.90;;;8.23;;
3259;SDS011;68938;48.150;14.004;2023-06-22T06:06:11;9.00;;;7.30;;
3259;SDS011;68938;48.150;14.004;2023-06-22T06:08:38;9.43;;;6.40;;
3259;SDS011;68938;48.150;14.004;2023-06-22T06:11:05;11.17;;;6.87;;
3259;SDS011;68938;48.150;14.004;2023-06-22T06:13:32;7.20;;;6.50;;
3259;SDS011;68938;48.150;14.004;2023-06-22T06:15:59;10.17;;;6.90;;
3259;SDS011;68938;48.150;14.004;2023-06-22T06:18:26;9.63;;;7.20;;
3259;SDS011;68938;48.150;14.004;2023-06-22T06:20:53;9.70;;;6.50;;
3259;SDS011;68938;48.150;14.004;2023-06-22T06:23:20;12.97;;;6.77;;
3259;SDS011;68938;48.150;14.004;2023-06-22T06:25:47;6.67;;;6.03;;
3259;SDS011;68938;48.150;14.004;2023-06-22T06:28:14;6.30;;;5.37;;
3259;SDS011;68938;48.150;14.004;2023-06-22T06:30:41;11.60;;;6.17;;
3259;SDS011;68938;48.150;14.004;2023-06-22T06:33:08;8.97;;;5.70;;
3259;SDS011;68938;48.150;14.004;2023-06-22T06:35:35;9.87;;;5.73;;
3259;SDS011;68938;48.150;14.004;2023-06-22T06:38:02;7.13;;;5.30;;
3259;SDS011;68938;48.150;14.004;2023-06-22T06:40:29;12.53;;;6.10;;
3259;SDS011;68938;48.150;14.004;2023-06-22T06:42:57;10.20;;;6.63;;
3259;SDS011;68938;48.150;14.004;2023-06-22T06:45:24;10.73;;;6.60;;
3259;SDS011;68938;48.150;14.004;2023-06-22T06:47:52;11.60;;;6.67;;
3259;SDS011;68938;48.150;14.004;2023-06-22T06:50:19;7.13;;;5.57;;
3259;SDS011;68938;48.150;14.004;2023-06-22T06:52:46;6.13;;;5.50;;
3259;SDS011;68938;48.150;14.004;2023-06-22T06:55:13;12.53;;;6.50;;
3259;SDS011;68938;48.150;14.004;2023-06-22T06:57:40;12.90;;;6.33;;
3259;SDS011;68938;48.150;14.004;2023-06-22T07:00:10;8.00;;;6.60;;
3259;SDS011;68938;48.150;14.004;2023-06-22T07:02:39;11.47;;;6.57;;
3259;SDS011;68938;48.150;14.004;2023-06-22T07:05:09;7.00;;;6.10;;
3259;SDS011;68938;48.150;14.004;2023-06-22T07:07:38;6.57;;;5.97;;
3259;SDS011;68938;48.150;14.004;2023-06-22T07:10:05;8.83;;;5.87;;
3259;SDS011;68938;48.150;14.004;2023-06-22T07:12:33;9.90;;;6.20;;
3259;SDS011;68938;48.150;14.004;2023-06-22T07:15:04;8.83;;;5.70;;
3259;SDS011;68938;48.150;14.004;2023-06-22T07:17:33;8.00;;;6.00;;
3259;SDS011;68938;48.150;14.004;2023-06-22T07:20:02;7.80;;;4.90;;
3259;SDS011;68938;48.150;14.004;2023-06-22T07:22:29;9.63;;;6.00;;
3259;SDS011;68938;48.150;14.004;2023-06-22T07:24:56;12.03;;;5.97;;
3259;SDS011;68938;48.150;14.004;2023-06-22T07:27:23;12.17;;;6.60;;
3259;SDS011;68938;48.150;14.004;2023-06-22T07:29:50;9.50;;;6.50;;
3259;SDS011;68938;48.150;14.004;2023-06-22T07:32:17;10.37;;;5.80;;
3259;SDS011;68938;48.150;14.004;2023-06-22T07:34:44;10.50;;;6.53;;
3259;SDS011;68938;48.150;14.004;2023-06-22T07:37:11;7.27;;;5.50;;
3259;SDS011;68938;48.150;14.004;2023-06-22T07:39:38;6.30;;;5.60;;
3259;SDS011;68938;48.150;14.004;2023-06-22T07:42:05;6.23;;;5.63;;
3259;SDS011;68938;48.150;14.004;2023-06-22T07:44:32;13.33;;;5.97;;
3259;SDS011;68938;48.150;14.004;2023-06-22T07:46:58;12.23;;;6.30;;
3259;SDS011;68938;48.150;14.004;2023-06-22T07:49:27;7.17;;;6.30;;
3259;SDS011;68938;48.150;14.004;2023-06-22T07:51:54;9.83;;;5.57;;
3259;SDS011;68938;48.150;14.004;2023-06-22T07:54:21;5.67;;;4.90;;
3259;SDS011;68938;48.150;14.004;2023-06-22T07:56:48;6.70;;;5.40;;
3259;SDS011;68938;48.150;14.004;2023-06-22T07:59:15;6.00;;;5.37;;
3259;SDS011;68938;48.150;14.004;2023-06-22T08:01:42;8.53;;;6.27;;
3259;SDS011;68938;48.150;14.004;2023-06-22T08:04:09;5.33;;;4.60;;
3259;SDS011;68938;48.150;14.004;2023-06-22T08:06:36;8.00;;;5.23;;
3259;SDS011;68938;48.150;14.004;2023-06-22T08:09:03;7.97;;;4.83;;
3259;SDS011;68938;48.150;14.004;2023-06-22T08:11:30;8.17;;;5.30;;
3259;SDS011;68938;48.150;14.004;2023-06-22T08:13:57;6.50;;;5.70;;
3259;SDS011;68938;48.150;14.004;2023-06-22T08:16:24;5.83;;;5.07;;
3259;SDS011;68938;48.150;14.004;2023-06-22T08:18:51;6.70;;;5.73;;
3259;SDS011;68938;48.150;14.004;2023-06-22T08:21:18;8.90;;;5.30;;
3259;SDS011;68938;48.150;14.004;2023-06-22T08:23:45;12.63;;;5.97;;
3259;SDS011;68938;48.150;14.004;2023-06-22T08:26:12;9.17;;;5.93;;
3259;SDS011;68938;48.150;14.004;2023-06-22T08:28:39;7.47;;;5.57;;
3259;SDS011;68938;48.150;14.004;2023-06-22T08:31:06;7.20;;;5.73;;
3259;SDS011;68938;48.150;14.004;2023-06-22T08:33:33;8.33;;;5.97;;
3259;SDS011;68938;48.150;14.004;2023-06-22T08:36:00;8.10;;;6.40;;
3259;SDS011;68938;48.150;14.004;2023-06-22T08:38:27;7.93;;;5.33;;
3259;SDS011;68938;48.150;14.004;2023-06-22T08:40:53;6.53;;;5.67;;
3259;SDS011;68938;48.150;14.004;2023-06-22T08:43:20;5.90;;;5.37;;
3259;SDS011;68938;48.150;14.004;2023-06-22T08:45:47;6.37;;;4.70;;
3259;SDS011;68938;48.150;14.004;2023-06-22T08:48:14;9.10;;;4.97;;
3259;SDS011;68938;48.150;14.004;2023-06-22T08:50:41;8.70;;;5.40;;
3259;SDS011;68938;48.150;14.004;2023-06-22T08:53:08;7.07;;;5.40;;
3259;SDS011;68938;48.150;14.004;2023-06-22T08:55:35;7.27;;;5.10;;
3259;SDS011;68938;48.150;14.004;2023-06-22T08:58:02;7.00;;;5.53;;
3259;SDS011;68938;48.150;14.004;2023-06-22T09:00:29;5.97;;;5.40;;
3259;SDS011;68938;48.150;14.004;2023-06-22T09:02:56;7.33;;;6.63;;
3259;SDS011;68938;48.150;14.004;2023-06-22T09:05:24;6.63;;;5.00;;
3259;SDS011;68938;48.150;14.004;2023-06-22T09:07:51;7.37;;;6.23;;
3259;SDS011;68938;48.150;14.004;2023-06-22T09:10:18;5.83;;;5.23;;
3259;SDS011;68938;48.150;14.004;2023-06-22T09:12:45;7.17;;;5.60;;
3259;SDS011;68938;48.150;14.004;2023-06-22T09:15:12;7.70;;;6.17;;
3259;SDS011;68938;48.150;14.004;2023-06-22T09:17:43;6.93;;;5.97;;
3259;SDS011;68938;48.150;14.004;2023-06-22T09:20:11;8.27;;;6.00;;
3259;SDS011;68938;48.150;14.004;2023-06-22T09:22:38;5.80;;;5.30;;
3259;SDS011;68938;48.150;14.004;2023-06-22T09:25:05;10.20;;;5.60;;
3259;SDS011;68938;48.150;14.004;2023-06-22T09:27:33;6.63;;;5.33;;
3259;SDS011;68938;48.150;14.004;2023-06-22T09:30:00;8.27;;;5.80;;
3259;SDS011;68938;48.150;14.004;2023-06-22T09:32:27;7.20;;;5.13;;
3259;SDS011;68938;48.150;14.004;2023-06-22T09:34:54;6.83;;;6.17;;
3259;SDS011;68938;48.150;14.004;2023-06-22T09:37:21;6.83;;;6.00;;
3259;SDS011;68938;48.150;14.004;2023-06-22T09:39:48;9.03;;;5.77;;
3259;SDS011;68938;48.150;14.004;2023-06-22T09:42:15;6.67;;;5.47;;
3259;SDS011;68938;48.150;14.004;2023-06-22T09:44:41;5.73;;;5.23;;
3259;SDS011;68938;48.150;14.004;2023-06-22T09:47:08;7.30;;;5.10;;
3259;SDS011;68938;48.150;14.004;2023-06-22T09:49:35;8.17;;;5.67;;
3259;SDS011;68938;48.150;14.004;2023-06-22T09:52:14;8.17;;;5.70;;
3259;SDS011;68938;48.150;14.004;2023-06-22T09:54:42;7.47;;;5.70;;
3259;SDS011;68938;48.150;14.004;2023-06-22T09:57:09;6.03;;;5.30;;
3259;SDS011;68938;48.150;14.004;2023-06-22T09:59:36;9.57;;;5.37;;
3259;SDS011;68938;48.150;14.004;2023-06-22T10:02:03;6.00;;;5.40;;
3259;SDS011;68938;48.150;14.004;2023-06-22T10:04:30;6.33;;;5.43;;
3259;SDS011;68938;48.150;14.004;2023-06-22T10:06:58;5.83;;;5.23;;
3259;SDS011;68938;48.150;14.004;2023-06-22T10:09:24;8.23;;;5.40;;
3259;SDS011;68938;48.150;14.004;2023-06-22T10:11:51;5.40;;;5.00;;
3259;SDS011;68938;48.150;14.004;2023-06-22T10:14:19;6.67;;;6.07;;
3259;SDS011;68938;48.150;14.004;2023-06-22T10:16:46;8.63;;;5.63;;
3259;SDS011;68938;48.150;14.004;2023-06-22T10:19:14;8.50;;;4.50;;
3259;SDS011;68938;48.150;14.004;2023-06-22T10:21:41;7.40;;;5.60;;
3259;SDS011;68938;48.150;14.004;2023-06-22T10:24:08;7.03;;;5.23;;
3259;SDS011;68938;48.150;14.004;2023-06-22T10:26:35;5.57;;;4.37;;
3259;SDS011;68938;48.150;14.004;2023-06-22T10:29:03;10.80;;;5.60;;
3259;SDS011;68938;48.150;14.004;2023-06-22T10:31:41;6.30;;;5.33;;
3259;SDS011;68938;48.150;14.004;2023-06-22T10:34:08;8.90;;;5.60;;
3259;SDS011;68938;48.150;14.004;2023-06-22T10:36:35;9.10;;;5.97;;
3259;SDS011;68938;48.150;14.004;2023-06-22T10:39:02;9.50;;;5.10;;
3259;SDS011;68938;48.150;14.004;2023-06-22T10:41:29;9.50;;;5.40;;
3259;SDS011;68938;48.150;14.004;2023-06-22T10:43:56;9.00;;;5.60;;
3259;SDS011;68938;48.150;14.004;2023-06-22T10:46:26;7.27;;;5.60;;
3259;SDS011;68938;48.150;14.004;2023-06-22T10:48:53;11.93;;;6.43;;
3259;SDS011;68938;48.150;14.004;2023-06-22T10:51:20;8.97;;;5.17;;
3259;SDS011;68938;48.150;14.004;2023-06-22T10:53:47;7.60;;;5.90;;
3259;SDS011;68938;48.150;14.004;2023-06-22T10:56:14;10.33;;;5.80;;
3259;SDS011;68938;48.150;14.004;2023-06-22T10:58:41;11.77;;;6.67;;
3259;SDS011;68938;48.150;14.004;2023-06-22T11:01:08;8.13;;;5.77;;
3259;SDS011;68938;48.150;14.004;2023-06-22T11:03:55;6.70;;;6.00;;
3259;SDS011;68938;48.150;14.004;2023-06-22T11:06:22;9.47;;;6.33;;
3259;SDS011;68938;48.150;14.004;2023-06-22T11:08:49;8.93;;;5.97;;
3259;SDS011;68938;48.150;14.004;2023-06-22T11:11:31;6.03;;;5.63;;
3259;SDS011;68938;48.150;14.004;2023-06-22T11:13:59;6.43;;;5.83;;
3259;SDS011;68938;48.150;14.004;2023-06-22T11:16:26;7.70;;;6.70;;
3259;SDS011;68938;48.150;14.004;2023-06-22T11:18:54;8.90;;;5.80;;
3259;SDS011;68938;48.150;14.004;2023-06-22T11:21:21;8.33;;;6.17;;
3259;SDS011;68938;48.150;14.004;2023-06-22T11:23:48;7.10;;;6.40;;
3259;SDS011;68938;48.150;14.004;2023-06-22T11:26:25;10.33;;;6.53;;
3259;SDS011;68938;48.150;14.004;2023-06-22T11:28:52;7.53;;;6.60;;
3259;SDS011;68938;48.150;14.004;2023-06-22T11:31:20;11.40;;;5.53;;
3259;SDS011;68938;48.150;14.004;2023-06-22T11:33:52;9.70;;;5.83;;
3259;SDS011;68938;48.150;14.004;2023-06-22T11:36:19;7.63;;;6.00;;
3259;SDS011;68938;48.150;14.004;2023-06-22T11:38:46;11.13;;;6.37;;
3259;SDS011;68938;48.150;14.004;2023-06-22T11:41:13;7.80;;;6.60;;
3259;SDS011;68938;48.150;14.004;2023-06-22T11:43:40;7.37;;;6.57;;
3259;SDS011;68938;48.150;14.004;2023-06-22T11:46:07;9.40;;;5.73;;
3259;SDS011;68938;48.150;14.004;2023-06-22T11:48:34;8.53;;;6.37;;
3259;SDS011;68938;48.150;14.004;2023-06-22T11:51:01;12.03;;;7.10;;
3259;SDS011;68938;48.150;14.004;2023-06-22T11:53:29;5.87;;;5.37;;
3259;SDS011;68938;48.150;14.004;2023-06-22T11:55:56;12.60;;;6.87;;
3259;SDS011;68938;48.150;14.004;2023-06-22T11:58:23;8.20;;;6.43;;
3259;SDS011;68938;48.150;14.004;2023-06-22T12:00:50;8.87;;;5.73;;
3259;SDS011;68938;48.150;14.004;2023-06-22T12:03:18;12.37;;;7.30;;
3259;SDS011;68938;48.150;14.004;2023-06-22T12:05:46;13.33;;;6.77;;
3259;SDS011;68938;48.150;14.004;2023-06-22T12:08:14;11.17;;;7.00;;
3259;SDS011;68938;48.150;14.004;2023-06-22T12:10:41;6.00;;;5.50;;
3259;SDS011;68938;48.150;14.004;2023-06-22T12:13:08;8.57;;;6.23;;
3259;SDS011;68938;48.150;14.004;2023-06-22T12:15:35;13.53;;;6.33;;
3259;SDS011;68938;48.150;14.004;2023-06-22T12:18:02;7.10;;;5.90;;
3259;SDS011;68938;48.150;14.004;2023-06-22T12:20:29;9.90;;;6.50;;
3259;SDS011;68938;48.150;14.004;2023-06-22T12:22:57;8.47;;;6.67;;
3259;SDS011;68938;48.150;14.004;2023-06-22T12:25:25;9.13;;;7.17;;
3259;SDS011;68938;48.150;14.004;2023-06-22T12:27:52;9.70;;;6.20;;
3259;SDS011;68938;48.150;14.004;2023-06-22T12:30:19;7.70;;;6.60;;
3259;SDS011;68938;48.150;14.004;2023-06-22T12:32:46;6.23;;;5.53;;
3259;SDS011;68938;48.150;14.004;2023-06-22T12:35:12;9.27;;;6.30;;
3259;SDS011;68938;48.150;14.004;2023-06-22T12:37:40;10.23;;;7.30;;
3259;SDS011;68938;48.150;14.004;2023-06-22T12:40:09;6.97;;;6.20;;
3259;SDS011;68938;48.150;14.004;2023-06-22T12:42:37;10.10;;;7.13;;
3259;SDS011;68938;48.150;14.004;2023-06-22T12:45:04;13.17;;;6.70;;
3259;SDS011;68938;48.150;14.004;2023-06-22T12:47:32;8.20;;;6.17;;
3259;SDS011;68938;48.150;14.004;2023-06-22T12:49:59;11.80;;;7.63;;
3259;SDS011;68938;48.150;14.004;2023-06-22T12:52:26;8.47;;;6.43;;
3259;SDS011;68938;48.150;14.004;2023-06-22T12:54:53;7.80;;;7.10;;
3259;SDS011;68938;48.150;14.004;2023-06-22T12:57:21;8.43;;;7.23;;
3259;SDS011;68938;48.150;14.004;2023-06-22T12:59:49;13.47;;;6.67;;
3259;SDS011;68938;48.150;14.004;2023-06-22T13:02:16;7.80;;;6.97;;
3259;SDS011;68938;48.150;14.004;2023-06-22T13:04:43;11.03;;;7.20;;
3259;SDS011;68938;48.150;14.004;2023-06-22T13:07:10;11.10;;;6.50;;
3259;SDS011;68938;48.150;14.004;2023-06-22T13:09:40;7.30;;;6.70;;
3259;SDS011;68938;48.150;14.004;2023-06-22T13:12:07;7.70;;;7.00;;
3259;SDS011;68938;48.150;14.004;2023-06-22T13:14:34;8.30;;;7.50;;
3259;SDS011;68938;48.150;14.004;2023-06-22T13:17:01;7.70;;;7.00;;
3259;SDS011;68938;48.150;14.004;2023-06-22T13:19:28;7.77;;;6.43;;
3259;SDS011;68938;48.150;14.004;2023-06-22T13:21:55;12.80;;;6.93;;
3259;SDS011;68938;48.150;14.004;2023-06-22T13:24:22;9.50;;;6.77;;
3259;SDS011;68938;48.150;14.004;2023-06-22T13:26:49;9.50;;;7.07;;
3259;SDS011;68938;48.150;14.004;2023-06-22T13:29:16;10.90;;;7.57;;
3259;SDS011;68938;48.150;14.004;2023-06-22T13:31:43;10.33;;;7.13;;
3259;SDS011;68938;48.150;14.004;2023-06-22T13:34:10;10.80;;;7.23;;
3259;SDS011;68938;48.150;14.004;2023-06-22T13:36:37;11.80;;;7.13;;
3259;SDS011;68938;48.150;14.004;2023-06-22T13:39:04;10.30;;;7.33;;
3259;SDS011;68938;48.150;14.004;2023-06-22T13:41:31;8.80;;;6.70;;
3259;SDS011;68938;48.150;14.004;2023-06-22T13:43:57;9.90;;;6.87;;
3259;SDS011;68938;48.150;14.004;2023-06-22T13:46:24;11.70;;;7.10;;
3259;SDS011;68938;48.150;14.004;2023-06-22T13:48:51;9.97;;;7.23;;
3259;SDS011;68938;48.150;14.004;2023-06-22T13:51:22;9.07;;;6.23;;
3259;SDS011;68938;48.150;14.004;2023-06-22T13:53:49;9.67;;;7.60;;
3259;SDS011;68938;48.150;14.004;2023-06-22T13:56:16;7.77;;;7.10;;
3259;SDS011;68938;48.150;14.004;2023-06-22T13:58:43;9.10;;;6.90;;
3259;SDS011;68938;48.150;14.004;2023-06-22T14:01:10;7.53;;;6.77;;
3259;SDS011;68938;48.150;14.004;2023-06-22T14:03:43;9.50;;;6.63;;
3259;SDS011;68938;48.150;14.004;2023-06-22T14:06:10;8.30;;;7.20;;
3259;SDS011;68938;48.150;14.004;2023-06-22T14:08:37;9.37;;;6.70;;
3259;SDS011;68938;48.150;14.004;2023-06-22T14:11:07;7.70;;;7.00;;
3259;SDS011;68938;48.150;14.004;2023-06-22T14:13:34;7.20;;;6.50;;
3259;SDS011;68938;48.150;14.004;2023-06-22T14:16:01;10.03;;;6.80;;
3259;SDS011;68938;48.150;14.004;2023-06-22T14:18:28;8.73;;;7.10;;
3259;SDS011;68938;48.150;14.004;2023-06-22T14:20:55;9.43;;;7.10;;
3259;SDS011;68938;48.150;14.004;2023-06-22T14:23:22;11.10;;;7.50;;
3259;SDS011;68938;48.150;14.004;2023-06-22T14:25:49;14.70;;;8.53;;
3259;SDS011;68938;48.150;14.004;2023-06-22T14:28:16;12.40;;;6.90;;
3259;SDS011;68938;48.150;14.004;2023-06-22T14:30:43;9.47;;;6.97;;
3259;SDS011;68938;48.150;14.004;2023-06-22T14:33:11;8.70;;;7.43;;
3259;SDS011;68938;48.150;14.004;2023-06-22T14:35:39;9.70;;;7.43;;
3259;SDS011;68938;48.150;14.004;2023-06-22T14:38:06;19.87;;;7.70;;
3259;SDS011;68938;48.150;14.004;2023-06-22T14:40:33;11.10;;;7.80;;
3259;SDS011;68938;48.150;14.004;2023-06-22T14:43:13;10.13;;;8.10;;
3259;SDS011;68938;48.150;14.004;2023-06-22T14:45:40;7.70;;;7.07;;
3259;SDS011;68938;48.150;14.004;2023-06-22T14:48:07;9.90;;;8.17;;
3259;SDS011;68938;48.150;14.004;2023-06-22T14:50:35;8.67;;;7.77;;
3259;SDS011;68938;48.150;14.004;2023-06-22T14:53:02;8.70;;;7.80;;
3259;SDS011;68938;48.150;14.004;2023-06-22T14:55:29;10.13;;;8.60;;
3259;SDS011;68938;48.150;14.004;2023-06-22T14:57:56;12.40;;;7.97;;